Terminal Aerodrome Forecast
Issued by NWS

Home | Current Version | Previous Version | Text Only | Print | Product List | Glossary On
Versions: 1 2 3 4 5 6 7 8 9 10 11 12 13 14 15 16 17 18 19 20 21 22 23 24 25 26 27 28 29
009
FTUS42 KMHX 031815 AAJ
TAFISO
TAF AMD
KISO 031815Z 0318/0418 23012KT P6SM BKN012 BKN021
     FM032000 23011KT P6SM SCT080
     FM032300 24010KT P6SM VCTS OVC040CB
     FM040600 VRB03KT 3SM BR OVC007
     FM040700 VRB03KT 1SM BR OVC005
     FM041400 27005KT 6SM BR BKN015
     FM041600 28006KT P6SM BKN050
      AMD LTD TO CLD VIS AND WIND=

USA.gov is the U.S. government's official web portal to all federal, state and local government web resources and services.